Terminal Aerodrome Forecast
Issued by NWS

Current Version | Previous Version | Text Only | Print | Product List | Glossary Off
Versions: 1 2 3 4 5 6 7 8 9 10 11 12 13 14 15 16 17 18 19 20 21 22

000
FTUS42 KILM 291100
TAFCRE
TAF
KCRE 291120Z 2912/3012 20008KT P6SM SCT250
     FM291400 24007KT P6SM SCT025
     FM291800 20012KT P6SM SCT040 BKN250
     FM300100 26006KT P6SM VCSH BKN030=

USA.gov is the U.S. government's official web portal to all federal, state and local government web resources and services.